Olbia, Italy

3:16 AM CEST on August 28, 2015 (GMT +0200)
Olbia Tavolara Porto San Paolo | | Change Station
CLOSE
Current Station
Personal Weather Station
Location: Loiri Porto San Paolo, SARDEGNA
Elevation: 167 ft
Nearby Weather Stations

Elev 167 ft 40.87 °N, 9.62 °E | Updated 10 minutes ago

Clear
Clear
70.8 °F
Feels Like 70.8 °F
N
0.0
Wind Variable Wind from WSW
Gusts 0.0 mph

Today
High -- | Low -- °F
--% Chance of Precip.
Yesterday
High -- | Low -- °F
Precip. -- in
6:44 AM 8:01 PM
Waxing Gibbous, 96% visible
Pressure 30.06 in
Visibility 6.2 miles
Clouds
Dew Point 68 °F
Humidity 91%
Rainfall 0.00 in
Snow Depth Not available.
UV Not available.
Pollen Not available.
Air Quality Not available.
Flu Activity Not available.
METAR LFKF 280100Z AUTO 00000KT 9999 NCD 17/14 Q1018
Pressure 30.06 in
Visibility 6.2 miles
Clouds
Dew Point 68 °F
Humidity 91%
Rainfall 0.00 in
Snow Depth Not available.
UV Not available.
Pollen Not available.
Air Quality Not available.
Flu Activity Not available.
METAR LFKF 280100Z AUTO 00000KT 9999 NCD 17/14 Q1018

10-Day Weather Forecast

×

Almanac

Astronomy

Aug. 28, 2015 Rise Set
Actual Time
Civil Twilight
Nautical Twilight
Astronomical Twilight
Moon
Length of Visible Light
Length of Day
Tomorrow will be .
, % of the Moon is Illuminated

Today's Extremes

Country Highs Country Lows

Community

WunderPhotos

Upload Photos

1,850,294 photos uploaded!

WunderBlogs® & News

Nearby

Air Quality

  Air Quality AQ Index Pollutant
Not available.

Snow Depth

Station Depth Elevation

Earthquake Activity

City Distance Mag. Time & Date
Minimum magnitude displayed is 2.5.

Coastal Water Temperatures

Place Temperature

Stations

Nearby Weather Stations

Station Location Temp. Windchill Dew Point Humidity Wind Precip. Elev Updated Type